Time;durP1;ratioP1;P1;durP2;ratioP2;P2;SDS_P1;SDS_P2;PMS_P1;PMS_P2;Temp;Humidity;BMP_temperature;BMP_pressure;BME280_temperature;BME280_humidity;BME280_pressure;Samples;Min_cycle;Max_cycle;Signal;HPM_P1;HPM_P2
2022/01/08 00:00:21;;;;;;;;;81.80;73.00;19.30;99.90;;;;;;5056535;28;8741;-71
2022/01/08 00:02:48;;;;;;;;;79.40;68.00;19.30;99.90;;;;;;5056649;28;8722;-72
2022/01/08 00:05:18;;;;;;;;;81.20;69.80;19.30;99.90;;;;;;5056302;28;8773;-72
2022/01/08 00:07:45;;;;;;;;;78.00;63.80;19.30;99.90;;;;;;5056601;28;9434;-72
2022/01/08 00:10:12;;;;;;;;;77.00;65.40;19.50;99.90;;;;;;5057119;28;8761;-72
2022/01/08 00:12:39;;;;;;;;;83.00;74.00;19.60;99.90;;;;;;5055110;28;8777;-72
2022/01/08 00:15:07;;;;;;;;;81.80;69.40;19.70;99.90;;;;;;5056661;28;8737;-72
2022/01/08 00:17:34;;;;;;;;;82.60;77.40;19.60;99.90;;;;;;5056301;28;9512;-72
2022/01/08 00:20:01;;;;;;;;;81.20;68.80;19.70;99.90;;;;;;5055080;28;8714;-72
2022/01/08 00:22:28;;;;;;;;;82.00;75.40;19.70;99.90;;;;;;5056222;28;8721;-71
2022/01/08 00:24:55;;;;;;;;;80.80;71.60;19.60;99.90;;;;;;5057308;28;8761;-72
2022/01/08 00:27:22;;;;;;;;;77.80;67.40;19.50;99.90;;;;;;5056039;28;8852;-71
2022/01/08 00:29:49;;;;;;;;;80.20;69.00;19.50;99.90;;;;;;5059081;28;8769;-71
2022/01/08 00:32:19;;;;;;;;;78.60;68.00;19.60;99.90;;;;;;5059410;28;8761;-72
2022/01/08 00:34:45;;;;;;;;;83.00;77.40;19.70;99.90;;;;;;5060340;28;8900;-71
2022/01/08 00:37:12;;;;;;;;;81.80;70.60;19.60;99.90;;;;;;5061106;28;8839;-71
2022/01/08 00:39:39;;;;;;;;;85.40;78.00;19.60;99.90;;;;;;5050231;28;9422;-71
2022/01/08 00:42:06;;;;;;;;;83.20;75.40;19.60;99.90;;;;;;5043454;28;8765;-71
2022/01/08 00:44:33;;;;;;;;;81.80;76.60;19.70;99.90;;;;;;5060537;28;8816;-72
2022/01/08 00:46:59;;;;;;;;;79.20;66.40;19.80;99.90;;;;;;5060267;28;8778;-72
2022/01/08 00:49:27;;;;;;;;;88.00;76.20;19.80;99.90;;;;;;5059691;28;8754;-71
2022/01/08 00:51:54;;;;;;;;;84.40;73.20;19.70;99.90;;;;;;5059304;28;8777;-71
2022/01/08 00:54:20;;;;;;;;;82.00;72.80;19.90;99.90;;;;;;5059549;28;8790;-70
2022/01/08 00:56:48;;;;;;;;;82.00;76.20;20.00;99.90;;;;;;5059062;28;9438;-72
2022/01/08 00:59:15;;;;;;;;;81.20;75.00;19.90;99.90;;;;;;5059922;28;8773;-72
2022/01/08 01:01:42;;;;;;;;;79.60;66.20;20.00;99.90;;;;;;5058573;28;8777;-71
2022/01/08 01:04:08;;;;;;;;;89.00;78.60;20.10;99.90;;;;;;5058894;28;8738;-71
2022/01/08 01:06:35;;;;;;;;;80.20;74.00;20.20;99.90;;;;;;5059538;28;8742;-72
2022/01/08 01:09:02;;;;;;;;;80.00;73.00;20.10;99.90;;;;;;5059017;28;8784;-71
2022/01/08 01:11:28;;;;;;;;;79.00;70.20;20.20;99.90;;;;;;5059312;28;8784;-71
2022/01/08 01:13:55;;;;;;;;;78.00;65.20;20.30;99.90;;;;;;5059737;28;8816;-72
2022/01/08 01:16:22;;;;;;;;;79.40;69.60;20.40;99.90;;;;;;5058716;28;8795;-72
2022/01/08 01:18:48;;;;;;;;;79.80;72.00;20.40;99.90;;;;;;5059710;28;8877;-72
2022/01/08 01:21:15;;;;;;;;;78.20;70.60;20.40;99.90;;;;;;5059631;28;8762;-72
2022/01/08 01:23:43;;;;;;;;;78.20;65.80;20.50;99.90;;;;;;5059833;28;8879;-72
2022/01/08 01:26:15;;;;;;;;;80.20;66.40;20.60;99.90;;;;;;5059360;28;9126;-71
2022/01/08 01:28:49;;;;;;;;;73.80;60.40;20.70;99.90;;;;;;5059410;28;8726;-71
2022/01/08 01:47:04;;;;;;;;;79.40;73.60;21.10;99.90;;;;;;5059021;28;8718;-72
2022/01/08 01:49:37;;;;;;;;;78.00;69.60;21.20;99.90;;;;;;5058552;28;8792;-70
2022/01/08 01:52:06;;;;;;;;;78.20;69.20;21.30;99.90;;;;;;5059646;28;8880;-72
2022/01/08 01:54:33;;;;;;;;;79.00;68.80;21.50;99.90;;;;;;5058488;28;8809;-71
2022/01/08 01:57:01;;;;;;;;;76.20;67.40;21.50;99.90;;;;;;5057488;28;8927;-71
2022/01/08 01:59:28;;;;;;;;;76.60;65.60;21.50;99.90;;;;;;5057523;28;8777;-71
2022/01/08 02:01:55;;;;;;;;;76.20;68.60;21.60;99.90;;;;;;5058817;28;9897;-71
2022/01/08 02:04:21;;;;;;;;;72.40;60.60;21.60;99.90;;;;;;5058866;28;8786;-70
2022/01/08 02:06:48;;;;;;;;;75.60;66.00;21.70;99.90;;;;;;5058922;28;8753;-71
2022/01/08 02:09:15;;;;;;;;;74.20;62.80;21.80;99.90;;;;;;5058382;28;9414;-71
2022/01/08 02:12:01;;;;;;;;;76.40;69.80;21.90;99.90;;;;;;5057279;28;8774;-71
2022/01/08 02:14:29;;;;;;;;;76.00;67.00;22.00;99.90;;;;;;5058072;28;8793;-71
2022/01/08 02:16:56;;;;;;;;;77.60;69.20;22.00;99.90;;;;;;5059125;28;8749;-71
2022/01/08 02:19:23;;;;;;;;;77.60;69.80;22.00;99.90;;;;;;5058600;28;8765;-70
2022/01/08 02:21:53;;;;;;;;;77.80;67.20;22.10;99.90;;;;;;5058802;28;8764;-71
2022/01/08 02:24:20;;;;;;;;;87.00;76.20;22.20;99.90;;;;;;5057234;28;8892;-70
2022/01/08 02:26:47;;;;;;;;;82.60;68.00;22.30;99.90;;;;;;5058857;28;8774;-71
2022/01/08 02:29:15;;;;;;;;;81.20;69.40;22.40;99.90;;;;;;5073626;28;8770;-71
2022/01/08 02:31:41;;;;;;;;;74.40;64.00;22.50;99.90;;;;;;5056641;28;8872;-71
2022/01/08 02:34:08;;;;;;;;;78.20;64.00;22.70;99.90;;;;;;5058602;28;8794;-72
2022/01/08 02:36:39;;;;;;;;;77.80;62.40;22.50;99.90;;;;;;5057932;28;8792;-71
2022/01/08 02:39:06;;;;;;;;;77.00;62.80;22.70;99.90;;;;;;5057963;28;8762;-71
2022/01/08 02:41:33;;;;;;;;;80.00;68.20;22.70;99.90;;;;;;5056638;28;8954;-71
2022/01/08 02:43:59;;;;;;;;;81.80;68.80;22.80;99.90;;;;;;5057866;28;8781;-71
2022/01/08 02:46:28;;;;;;;;;80.00;66.00;22.90;99.90;;;;;;5057509;28;8823;-70
2022/01/08 02:48:55;;;;;;;;;76.20;58.60;23.10;99.90;;;;;;5058355;28;8778;-71
2022/01/08 02:51:21;;;;;;;;;73.20;55.60;23.10;99.90;;;;;;5057156;28;8753;-71
2022/01/08 02:53:48;;;;;;;;;74.60;56.20;23.10;99.90;;;;;;5057693;28;9343;-72
2022/01/08 02:56:15;;;;;;;;;76.20;58.00;23.10;99.90;;;;;;5057487;28;8872;-71
2022/01/08 02:58:43;;;;;;;;;68.80;54.80;23.00;99.90;;;;;;5056228;28;8777;-70
2022/01/08 03:01:10;;;;;;;;;71.20;55.00;23.00;99.90;;;;;;5058351;28;8734;-71
2022/01/08 03:03:37;;;;;;;;;67.00;53.00;23.20;99.90;;;;;;5057364;28;8765;-71
2022/01/08 03:06:03;;;;;;;;;72.20;54.00;23.50;99.90;;;;;;5056514;28;8760;-72
2022/01/08 03:08:32;;;;;;;;;73.00;56.60;23.50;99.90;;;;;;5057489;28;8846;-72
2022/01/08 03:10:58;;;;;;;;;71.80;56.60;23.60;99.90;;;;;;5057777;28;8777;-72
2022/01/08 03:13:25;;;;;;;;;72.40;57.00;23.70;99.90;;;;;;5055970;28;8733;-70
2022/01/08 03:15:52;;;;;;;;;79.00;60.60;23.90;99.90;;;;;;5057476;28;9390;-73
2022/01/08 03:18:18;;;;;;;;;77.80;59.20;23.80;99.90;;;;;;5057064;28;8785;-71
2022/01/08 03:20:49;;;;;;;;;66.80;52.80;23.90;99.90;;;;;;5072815;28;8742;-72
2022/01/08 03:23:17;;;;;;;;;72.20;55.80;23.90;99.90;;;;;;5057342;28;8770;-72
2022/01/08 03:25:44;;;;;;;;;74.80;58.80;23.90;99.90;;;;;;5056833;28;8715;-71
2022/01/08 03:28:11;;;;;;;;;65.00;49.20;23.80;99.90;;;;;;5057995;28;8754;-71
2022/01/08 03:30:41;;;;;;;;;73.00;55.20;23.90;99.90;;;;;;5056789;28;8765;-72
2022/01/08 03:33:08;;;;;;;;;69.60;54.40;24.20;99.90;;;;;;5055534;28;8773;-72
2022/01/08 03:35:35;;;;;;;;;69.00;53.60;24.10;99.90;;;;;;5056373;28;8747;-72
2022/01/08 03:38:02;;;;;;;;;67.00;52.25;24.10;99.90;;;;;;5055516;28;8753;-73
2022/01/08 03:40:28;;;;;;;;;68.25;53.75;24.30;99.90;;;;;;5056817;28;8787;-72
2022/01/08 03:42:55;;;;;;;;;61.75;48.25;24.50;99.90;;;;;;5046943;28;8751;-72
2022/01/08 03:45:22;;;;;;;;;57.25;45.25;24.30;99.90;;;;;;5044248;28;8744;-72
2022/01/08 03:50:15;;;;;;;;;64.25;49.00;24.70;99.90;;;;;;5055396;28;9451;-72
2022/01/08 03:52:42;;;;;;;;;62.00;48.75;24.60;99.90;;;;;;5056835;28;8733;-72
2022/01/08 03:55:09;;;;;;;;;60.25;48.50;24.60;99.90;;;;;;5057069;28;9462;-72
2022/01/08 03:57:35;;;;;;;;;63.50;49.50;24.90;99.90;;;;;;5056172;28;8804;-70
2022/01/08 04:00:03;;;;;;;;;61.75;49.25;25.10;99.90;;;;;;5056536;28;8835;-72
2022/01/08 04:02:29;;;;;;;;;60.25;47.25;25.30;99.90;;;;;;5056436;28;8781;-71
2022/01/08 04:04:56;;;;;;;;;61.25;48.00;25.40;99.90;;;;;;5055794;28;9171;-69
2022/01/08 04:07:23;;;;;;;;;59.75;47.00;25.60;99.90;;;;;;5057106;28;8788;-66
2022/01/08 04:09:50;;;;;;;;;60.75;48.00;25.60;99.90;;;;;;5057393;28;8839;-71
2022/01/08 04:12:23;;;;;;;;;59.75;48.50;25.70;99.90;;;;;;5045566;28;8860;-72
2022/01/08 04:15:02;;;;;;;;;57.50;46.50;25.70;99.90;;;;;;5056451;28;8773;-72
2022/01/08 04:17:29;;;;;;;;;59.00;47.25;25.70;99.90;;;;;;5056214;28;8818;-72
2022/01/08 04:19:55;;;;;;;;;58.00;46.75;25.80;99.90;;;;;;5038321;28;8773;-70
2022/01/08 04:22:26;;;;;;;;;57.00;47.00;25.70;99.90;;;;;;5056665;28;8741;-71
2022/01/08 04:24:54;;;;;;;;;61.00;47.50;25.90;99.90;;;;;;5056762;28;8754;-72
2022/01/08 04:27:21;;;;;;;;;55.25;45.25;26.10;99.90;;;;;;5056218;28;8770;-71
2022/01/08 04:29:48;;;;;;;;;57.25;46.25;26.20;99.90;;;;;;5056320;28;8772;-72
2022/01/08 04:32:14;;;;;;;;;55.75;45.00;26.00;99.90;;;;;;5053011;28;8800;-72
2022/01/08 04:34:41;;;;;;;;;51.00;43.00;25.80;99.90;;;;;;5054526;28;8916;-71
2022/01/08 04:37:08;;;;;;;;;55.50;45.25;25.70;99.90;;;;;;5036968;28;8752;-72
2022/01/08 04:39:37;;;;;;;;;59.25;48.25;25.80;99.90;;;;;;5036071;28;8764;-72
2022/01/08 04:42:04;;;;;;;;;57.00;46.25;26.00;99.90;;;;;;5036539;28;8779;-72
2022/01/08 04:44:31;;;;;;;;;63.00;46.25;26.20;99.90;;;;;;5036026;28;8760;-71
2022/01/08 04:46:57;;;;;;;;;59.75;45.75;26.40;99.90;;;;;;5036303;28;8772;-72
2022/01/08 04:49:24;;;;;;;;;57.75;45.50;26.50;99.90;;;;;;5036386;28;8765;-72
2022/01/08 04:51:51;;;;;;;;;52.25;41.75;26.50;99.90;;;;;;5035581;28;8728;-71
2022/01/08 04:54:19;;;;;;;;;52.50;42.50;26.60;99.90;;;;;;5035857;28;8870;-70
2022/01/08 04:56:46;;;;;;;;;53.50;42.50;26.80;99.60;;;;;;5036267;28;8764;-71
2022/01/08 04:59:12;;;;;;;;;56.75;45.00;27.00;99.80;;;;;;5036133;28;8791;-71
2022/01/08 05:01:39;;;;;;;;;50.00;42.00;27.10;98.90;;;;;;5036145;28;8748;-71
2022/01/08 05:04:06;;;;;;;;;56.75;45.75;26.50;99.00;;;;;;5048236;28;8820;-71
2022/01/08 05:06:33;;;;;;;;;51.00;40.75;26.40;99.60;;;;;;5055971;28;8726;-71
2022/01/08 05:09:00;;;;;;;;;57.00;42.50;26.50;99.50;;;;;;5056007;28;8738;-71
2022/01/08 05:11:29;;;;;;;;;53.25;44.50;26.90;99.50;;;;;;5056085;28;8784;-71
2022/01/08 05:13:57;;;;;;;;;50.50;42.00;27.20;98.70;;;;;;5056094;28;8778;-72
2022/01/08 05:16:28;;;;;;;;;52.25;41.75;27.40;98.30;;;;;;5058350;28;8733;-71
2022/01/08 05:18:55;;;;;;;;;53.25;41.00;27.30;98.30;;;;;;5059766;28;9426;-72
2022/01/08 05:21:25;;;;;;;;;50.25;41.25;27.20;98.30;;;;;;5058372;28;8723;-71
2022/01/08 05:23:55;;;;;;;;;51.75;43.00;27.40;98.10;;;;;;5059799;28;8746;-71
2022/01/08 05:26:24;;;;;;;;;50.00;39.50;27.50;97.90;;;;;;5059472;28;8835;-71
2022/01/08 05:28:50;;;;;;;;;50.25;41.25;27.70;97.50;;;;;;5059283;28;8827;-72
2022/01/08 05:31:22;;;;;;;;;48.25;36.75;27.80;97.60;;;;;;5059913;28;8726;-70
2022/01/08 05:33:49;;;;;;;;;50.25;42.25;27.80;97.20;;;;;;5059309;28;8772;-72
2022/01/08 05:36:16;;;;;;;;;50.25;41.50;27.90;97.10;;;;;;5059481;28;8853;-72
2022/01/08 05:38:43;;;;;;;;;52.50;42.50;28.00;96.70;;;;;;5059341;28;9383;-72
2022/01/08 05:41:10;;;;;;;;;50.75;40.75;28.10;96.30;;;;;;5059184;28;8753;-72
2022/01/08 05:43:37;;;;;;;;;42.00;36.25;28.10;95.80;;;;;;5059124;28;8761;-71
2022/01/08 05:46:03;;;;;;;;;46.75;37.25;28.10;96.10;;;;;;5059806;28;8730;-72
2022/01/08 05:48:30;;;;;;;;;45.25;34.50;27.80;96.00;;;;;;5058694;28;8735;-69
2022/01/08 05:50:57;;;;;;;;;51.25;42.25;28.00;96.10;;;;;;5058826;28;8772;-71
2022/01/08 05:53:24;;;;;;;;;51.00;41.00;28.10;95.60;;;;;;5059004;28;9178;-70
2022/01/08 05:55:50;;;;;;;;;52.00;40.75;28.30;95.50;;;;;;5059100;28;8766;-71
2022/01/08 05:58:17;;;;;;;;;47.75;41.00;28.40;95.70;;;;;;5058563;28;8764;-68
2022/01/08 06:00:44;;;;;;;;;50.75;40.75;28.50;95.60;;;;;;5057474;28;8800;-71
2022/01/08 06:03:10;;;;;;;;;52.50;42.00;28.60;95.20;;;;;;5054408;28;8753;-70
2022/01/08 06:05:37;;;;;;;;;49.00;39.25;28.70;95.20;;;;;;5037313;28;9197;-70
2022/01/08 06:08:04;;;;;;;;;50.50;41.25;28.80;94.90;;;;;;5038572;28;8732;-70
2022/01/08 06:10:30;;;;;;;;;46.00;36.50;29.00;94.00;;;;;;5038421;28;8733;-71
2022/01/08 06:12:57;;;;;;;;;43.00;36.75;29.00;93.70;;;;;;5039184;28;8890;-70
2022/01/08 06:15:24;;;;;;;;;45.75;38.00;28.90;93.60;;;;;;5037984;28;8820;-71
2022/01/08 06:17:50;;;;;;;;;54.75;41.25;29.00;93.20;;;;;;5039948;28;8776;-71
2022/01/08 06:20:17;;;;;;;;;45.50;37.50;29.00;93.40;;;;;;5058699;28;8912;-69
2022/01/08 06:22:44;;;;;;;;;34.25;31.50;29.00;93.10;;;;;;5058381;28;8815;-70
2022/01/08 06:25:11;;;;;;;;;47.25;39.00;29.20;93.30;;;;;;5059625;28;8762;-70
2022/01/08 06:27:37;;;;;;;;;35.25;31.75;29.30;92.40;;;;;;5057674;28;8785;-70
2022/01/08 06:30:05;;;;;;;;;42.50;34.50;29.20;92.60;;;;;;5057006;28;8840;-70
2022/01/08 06:32:32;;;;;;;;;42.75;36.75;29.20;92.50;;;;;;5058093;28;8892;-70
2022/01/08 06:34:58;;;;;;;;;47.00;37.00;29.40;92.50;;;;;;5057987;28;8780;-70
2022/01/08 06:37:25;;;;;;;;;43.25;36.00;29.50;92.20;;;;;;5056824;28;8746;-69
2022/01/08 06:39:52;;;;;;;;;43.00;35.75;29.50;92.00;;;;;;5057020;28;8756;-70
2022/01/08 06:42:19;;;;;;;;;46.25;37.75;29.60;90.90;;;;;;5056444;28;8789;-70
2022/01/08 06:44:45;;;;;;;;;45.75;37.00;29.70;91.00;;;;;;5058101;28;8952;-70
2022/01/08 06:47:12;;;;;;;;;40.00;36.00;29.70;91.80;;;;;;5056531;28;9050;-71
2022/01/08 06:49:39;;;;;;;;;43.25;36.00;29.60;91.20;;;;;;5057606;28;8746;-71
2022/01/08 06:52:06;;;;;;;;;48.75;38.50;29.70;91.40;;;;;;5058190;28;8749;-71
2022/01/08 06:54:32;;;;;;;;;45.00;37.25;29.80;91.40;;;;;;5056140;28;8813;-70
2022/01/08 06:56:59;;;;;;;;;40.75;35.25;29.80;90.80;;;;;;5057571;28;9426;-71
2022/01/08 06:59:26;;;;;;;;;38.00;33.25;29.90;91.20;;;;;;5056356;28;8780;-71
2022/01/08 07:01:52;;;;;;;;;44.50;36.00;29.90;90.40;;;;;;5057794;28;8766;-71
2022/01/08 07:04:19;;;;;;;;;38.75;34.50;30.00;90.50;;;;;;5057699;28;8906;-71
2022/01/08 07:06:46;;;;;;;;;39.75;33.00;30.20;90.70;;;;;;5056266;28;8754;-72
2022/01/08 07:09:13;;;;;;;;;31.50;30.25;30.20;90.60;;;;;;5056237;28;8745;-71
2022/01/08 07:11:39;;;;;;;;;35.25;30.75;30.10;87.90;;;;;;5057180;28;9291;-71
2022/01/08 07:14:06;;;;;;;;;35.50;30.00;30.00;87.80;;;;;;5057487;28;8960;-71
2022/01/08 07:16:33;;;;;;;;;41.00;33.25;30.10;88.00;;;;;;5039410;28;8764;-71
2022/01/08 07:18:59;;;;;;;;;34.25;31.75;30.20;88.10;;;;;;5058095;28;9421;-71
2022/01/08 07:21:26;;;;;;;;;33.25;31.75;30.20;87.10;;;;;;5057375;28;8758;-70
2022/01/08 07:23:53;;;;;;;;;33.25;30.75;30.20;85.40;;;;;;5057038;28;8762;-71
2022/01/08 07:26:21;;;;;;;;;38.50;32.50;30.20;85.80;;;;;;5072173;28;9410;-70
2022/01/08 07:28:48;;;;;;;;;31.25;28.00;30.30;84.60;;;;;;5056746;28;8757;-72
2022/01/08 07:31:14;;;;;;;;;33.50;29.00;30.20;84.00;;;;;;5057699;28;8762;-72
2022/01/08 07:33:41;;;;;;;;;27.50;25.75;30.20;84.00;;;;;;5056747;28;8734;-72
2022/01/08 07:36:08;;;;;;;;;27.75;26.75;30.20;83.90;;;;;;5055253;28;8745;-71
2022/01/08 07:38:34;;;;;;;;;31.50;21.00;30.20;82.30;;;;;;5056037;28;8766;-71
2022/01/08 07:41:01;;;;;;;;;28.00;21.50;30.20;81.00;;;;;;5056791;28;9157;-71
2022/01/08 07:43:28;;;;;;;;;30.75;28.00;30.20;81.20;;;;;;5047820;28;8758;-71
2022/01/08 07:45:55;;;;;;;;;28.25;25.00;30.20;82.00;;;;;;5057476;28;8785;-71
2022/01/08 07:48:21;;;;;;;;;27.25;23.25;30.30;81.50;;;;;;5056393;28;8733;-71
2022/01/08 07:50:48;;;;;;;;;21.00;20.00;30.40;80.10;;;;;;5056731;28;8718;-72
2022/01/08 07:53:15;;;;;;;;;22.80;19.00;30.50;78.80;;;;;;5071880;28;8774;-71
2022/01/08 07:55:41;;;;;;;;;21.50;20.50;30.60;76.80;;;;;;5056672;28;8888;-71
2022/01/08 07:58:08;;;;;;;;;22.80;21.80;30.60;77.90;;;;;;5056162;28;8762;-71
2022/01/08 08:00:35;;;;;;;;;31.25;27.00;30.70;78.60;;;;;;5056431;28;8835;-72
2022/01/08 08:03:01;;;;;;;;;27.75;23.75;30.70;78.00;;;;;;5056485;28;8761;-71
2022/01/08 08:05:31;;;;;;;;;25.25;25.25;30.60;79.50;;;;;;5038106;28;8776;-71
2022/01/08 08:07:57;;;;;;;;;25.75;23.25;30.60;79.40;;;;;;5056433;28;8860;-71
2022/01/08 08:10:27;;;;;;;;;26.25;24.50;30.50;80.40;;;;;;5056770;28;8804;-71
2022/01/08 08:12:54;;;;;;;;;29.00;27.50;30.30;79.10;;;;;;5056659;28;8800;-71
2022/01/08 08:15:20;;;;;;;;;29.50;26.75;30.30;79.90;;;;;;5054993;28;8781;-71
2022/01/08 08:17:47;;;;;;;;;24.50;22.25;30.40;79.20;;;;;;5056809;28;8795;-72
2022/01/08 08:20:14;;;;;;;;;23.75;21.50;30.50;77.40;;;;;;5056684;28;8758;-72
2022/01/08 08:22:41;;;;;;;;;26.00;23.75;30.60;77.80;;;;;;5056670;28;9402;-72
2022/01/08 08:25:10;;;;;;;;;25.00;24.00;30.70;77.20;;;;;;5055992;28;8738;-72
2022/01/08 08:27:37;;;;;;;;;31.50;29.25;30.80;78.90;;;;;;5056289;28;8794;-71
2022/01/08 08:30:04;;;;;;;;;35.50;28.00;30.80;80.30;;;;;;5056728;28;8969;-71
2022/01/08 08:32:31;;;;;;;;;26.25;24.75;30.70;79.30;;;;;;5054904;28;9847;-72
2022/01/08 08:34:58;;;;;;;;;29.25;25.00;30.70;79.20;;;;;;5054821;28;9466;-72
2022/01/08 08:37:24;;;;;;;;;22.75;19.00;30.70;80.50;;;;;;5056256;28;8749;-65
2022/01/08 08:39:51;;;;;;;;;25.50;23.25;30.70;79.70;;;;;;5057261;28;8738;-71
2022/01/08 08:42:18;;;;;;;;;19.75;19.75;30.70;76.90;;;;;;5054617;28;8754;-69
2022/01/08 08:44:44;;;;;;;;;24.25;21.25;30.70;78.10;;;;;;5056539;28;8761;-71
2022/01/08 08:47:11;;;;;;;;;24.25;23.00;30.70;77.10;;;;;;5056615;28;8762;-72
2022/01/08 08:49:38;;;;;;;;;26.00;24.00;30.60;76.80;;;;;;5039108;28;8753;-72
2022/01/08 08:52:05;;;;;;;;;23.00;23.00;30.40;77.20;;;;;;5063924;28;8741;-71
2022/01/08 08:54:31;;;;;;;;;26.25;24.50;30.40;77.00;;;;;;5062334;28;8801;-71
2022/01/08 08:56:58;;;;;;;;;25.50;22.75;30.40;76.40;;;;;;5060291;28;9003;-72
2022/01/08 08:59:25;;;;;;;;;31.00;26.50;30.40;76.70;;;;;;5059882;28;8805;-71
2022/01/08 09:01:51;;;;;;;;;21.00;18.25;30.20;78.20;;;;;;5060075;28;8769;-72
2022/01/08 09:04:18;;;;;;;;;21.50;20.00;30.20;78.40;;;;;;5060212;28;8733;-69
2022/01/08 09:06:45;;;;;;;;;20.75;20.25;30.30;77.60;;;;;;5060019;28;8741;-71
2022/01/08 09:09:12;;;;;;;;;21.75;19.50;30.40;76.10;;;;;;5059885;28;8810;-71
2022/01/08 09:11:38;;;;;;;;;21.50;20.50;30.40;75.00;;;;;;5058474;28;8758;-71
2022/01/08 09:14:05;;;;;;;;;19.25;18.75;30.50;74.80;;;;;;5059978;28;8730;-72
2022/01/08 09:16:32;;;;;;;;;18.80;18.80;30.60;75.80;;;;;;5059570;28;8768;-71
2022/01/08 09:18:59;;;;;;;;;19.00;19.00;30.40;76.40;;;;;;5059121;28;9425;-70
2022/01/08 09:21:26;;;;;;;;;17.00;16.50;30.40;76.20;;;;;;5058462;28;8738;-71
2022/01/08 09:23:52;;;;;;;;;17.00;17.00;30.40;73.10;;;;;;5059728;28;9367;-71
2022/01/08 09:26:19;;;;;;;;;19.75;16.75;30.60;73.60;;;;;;5059186;28;8749;-70
2022/01/08 09:28:46;;;;;;;;;21.60;16.20;30.70;73.50;;;;;;5059462;28;8769;-70
2022/01/08 09:31:13;;;;;;;;;19.00;18.25;30.70;73.20;;;;;;5060251;28;8745;-70
2022/01/08 09:33:39;;;;;;;;;21.50;17.75;30.70;72.60;;;;;;5057825;28;8742;-71
2022/01/08 09:36:06;;;;;;;;;22.20;18.60;30.80;72.70;;;;;;5059227;28;8864;-71
2022/01/08 09:38:33;;;;;;;;;12.50;11.50;30.60;72.50;;;;;;5074481;28;8865;-72
2022/01/08 09:41:04;;;;;;;;;19.50;19.00;30.60;72.70;;;;;;5058227;28;8754;-71
2022/01/08 09:43:34;;;;;;;;;16.00;14.80;30.60;72.00;;;;;;5058323;28;8763;-69
2022/01/08 09:46:01;;;;;;;;;19.75;18.25;30.60;71.50;;;;;;5058664;28;8726;-70
2022/01/08 09:48:27;;;;;;;;;12.00;12.00;30.70;71.60;;;;;;5058822;28;9111;-71
2022/01/08 09:50:54;;;;;;;;;18.50;17.00;30.60;71.10;;;;;;5059366;28;8748;-71
2022/01/08 09:53:21;;;;;;;;;15.80;13.80;30.60;71.20;;;;;;5058952;28;9177;-71
2022/01/08 09:55:48;;;;;;;;;15.20;15.20;30.50;73.60;;;;;;5059377;28;9123;-71
2022/01/08 09:58:14;;;;;;;;;17.60;15.60;30.40;74.00;;;;;;5058197;28;8794;-71
2022/01/08 10:00:41;;;;;;;;;18.50;15.50;30.30;71.20;;;;;;5058622;28;8765;-71
2022/01/08 10:03:21;;;;;;;;;14.00;12.50;30.30;72.90;;;;;;5057972;28;8963;-71
2022/01/08 10:05:50;;;;;;;;;15.60;15.60;30.20;74.40;;;;;;5057587;28;9445;-71
2022/01/08 10:08:24;;;;;;;;;17.75;15.75;30.10;74.50;;;;;;5058940;28;8785;-69
2022/01/08 10:11:04;;;;;;;;;15.50;15.50;30.10;74.60;;;;;;5042246;28;8758;-71
2022/01/08 10:13:38;;;;;;;;;19.25;17.50;30.00;74.10;;;;;;5058745;28;9371;-70
2022/01/08 10:18:54;;;;;;;;;18.25;15.25;29.90;76.20;;;;;;5038008;28;8761;-71
2022/01/08 10:21:24;;;;;;;;;15.60;14.80;29.70;76.30;;;;;;5020822;28;9355;-70
2022/01/08 10:23:55;;;;;;;;;17.50;16.75;29.70;75.50;;;;;;5038550;28;8740;-71
2022/01/08 10:26:31;;;;;;;;;22.25;16.50;29.60;75.60;;;;;;5038303;28;9962;-70
2022/01/08 10:29:05;;;;;;;;;18.75;17.00;29.40;76.40;;;;;;5038278;28;8763;-71
2022/01/08 10:31:33;;;;;;;;;18.75;16.25;29.30;77.80;;;;;;5036976;28;8745;-71
2022/01/08 10:34:02;;;;;;;;;16.00;15.25;29.20;77.20;;;;;;5049325;28;8745;-71
2022/01/08 10:36:30;;;;;;;;;22.75;16.75;29.10;78.10;;;;;;5058196;28;8774;-72
2022/01/08 10:38:58;;;;;;;;;16.25;15.25;29.10;78.80;;;;;;5058652;28;8769;-71
2022/01/08 10:41:28;;;;;;;;;15.60;13.80;29.00;77.80;;;;;;5073680;28;8761;-71
2022/01/08 10:44:08;;;;;;;;;17.00;15.50;29.00;77.80;;;;;;5058526;28;9877;-71
2022/01/08 10:46:35;;;;;;;;;11.20;11.00;28.90;76.70;;;;;;5073682;28;8730;-71
2022/01/08 10:49:02;;;;;;;;;15.20;14.60;28.90;75.90;;;;;;5057594;28;9402;-71
2022/01/08 10:51:34;;;;;;;;;15.25;13.50;28.80;76.10;;;;;;5058087;28;8746;-71
2022/01/08 10:54:15;;;;;;;;;23.25;21.00;28.60;77.50;;;;;;5058107;28;8753;-71
2022/01/08 10:56:43;;;;;;;;;40.75;32.00;28.50;77.40;;;;;;5058125;28;8741;-71
2022/01/08 10:59:20;;;;;;;;;47.75;37.25;28.40;77.90;;;;;;5057846;28;8773;-71
2022/01/08 11:02:09;;;;;;;;;40.25;30.00;28.30;77.50;;;;;;5058020;28;8762;-71
2022/01/08 11:04:39;;;;;;;;;32.25;28.25;28.10;79.50;;;;;;5056435;28;8768;-71
2022/01/08 11:07:16;;;;;;;;;30.00;25.25;28.00;80.20;;;;;;5058348;28;8738;-71
2022/01/08 11:09:44;;;;;;;;;29.75;24.25;27.80;82.30;;;;;;5057767;28;8725;-71
2022/01/08 11:12:17;;;;;;;;;30.00;28.00;27.80;82.70;;;;;;5058220;28;8738;-71
2022/01/08 11:17:16;;;;;;;;;21.75;18.50;27.50;85.20;;;;;;5058701;28;8863;-71
2022/01/08 11:19:49;;;;;;;;;28.25;25.25;27.40;84.90;;;;;;5058428;28;8763;-70
2022/01/08 11:22:18;;;;;;;;;36.50;32.25;27.20;85.50;;;;;;5058922;28;8750;-71
2022/01/08 11:24:51;;;;;;;;;37.75;32.50;27.10;87.70;;;;;;5058223;28;9811;-71
2022/01/08 11:27:22;;;;;;;;;40.00;33.25;27.00;89.10;;;;;;5040355;28;8782;-69
2022/01/08 11:29:56;;;;;;;;;40.75;33.00;26.90;89.40;;;;;;5058034;28;8761;-71
2022/01/08 11:32:23;;;;;;;;;29.00;27.00;26.90;90.00;;;;;;5058170;28;8739;-71
2022/01/08 11:34:50;;;;;;;;;35.75;30.25;26.90;90.20;;;;;;5056880;28;8778;-72
2022/01/08 11:37:17;;;;;;;;;44.75;35.00;26.90;90.10;;;;;;5056825;28;8761;-71
2022/01/08 11:39:46;;;;;;;;;47.75;36.50;26.80;90.80;;;;;;5040129;28;8756;-71
2022/01/08 11:42:13;;;;;;;;;52.50;40.50;26.60;92.00;;;;;;5040775;28;8776;-71
2022/01/08 11:44:40;;;;;;;;;57.00;42.25;26.60;92.50;;;;;;5057403;28;8750;-71
2022/01/08 11:47:07;;;;;;;;;62.50;45.75;26.50;92.30;;;;;;5056368;28;8826;-72
2022/01/08 11:49:33;;;;;;;;;60.00;47.50;26.30;94.00;;;;;;5055746;28;8764;-71
2022/01/08 11:52:20;;;;;;;;;50.00;40.25;26.20;93.50;;;;;;5056481;28;9406;-71
2022/01/08 11:54:47;;;;;;;;;50.25;38.50;26.20;93.90;;;;;;5057057;28;8765;-71
2022/01/08 11:57:25;;;;;;;;;63.00;49.50;26.10;94.00;;;;;;5057465;28;8818;-71
2022/01/08 11:59:59;;;;;;;;;60.00;45.25;26.10;93.60;;;;;;5017330;28;8787;-71
2022/01/08 12:02:44;;;;;;;;;60.50;46.00;26.00;92.90;;;;;;5016882;28;8773;-71
2022/01/08 12:05:12;;;;;;;;;63.25;48.00;26.00;95.50;;;;;;5016189;28;8881;-71
2022/01/08 12:07:46;;;;;;;;;63.75;46.75;25.80;96.80;;;;;;5017112;28;8763;-71
2022/01/08 12:10:26;;;;;;;;;61.75;46.25;25.70;97.30;;;;;;5017808;28;8735;-72
2022/01/08 12:13:00;;;;;;;;;60.00;48.00;25.80;97.50;;;;;;5017270;28;8743;-72
2022/01/08 12:15:42;;;;;;;;;60.75;47.00;25.70;96.90;;;;;;5016545;28;9128;-72
2022/01/08 12:18:09;;;;;;;;;61.00;45.25;25.70;97.50;;;;;;5016980;28;9633;-72
2022/01/08 12:20:46;;;;;;;;;64.50;47.75;25.60;98.30;;;;;;5016747;28;8766;-72
2022/01/08 12:23:30;;;;;;;;;63.25;47.50;25.60;97.60;;;;;;5017538;28;8751;-72
2022/01/08 12:26:02;;;;;;;;;60.60;48.20;25.60;97.30;;;;;;5020009;28;8758;-72
2022/01/08 12:29:01;;;;;;;;;60.75;47.00;25.60;96.80;;;;;;5021103;28;11333;-71
2022/01/08 12:31:50;;;;;;;;;55.00;46.75;25.60;95.90;;;;;;5021212;28;8751;-72
2022/01/08 12:34:35;;;;;;;;;62.25;47.00;25.70;95.60;;;;;;5020939;28;8905;-72
2022/01/08 12:37:12;;;;;;;;;68.25;52.50;25.70;96.40;;;;;;5021355;28;8841;-71
2022/01/08 12:39:48;;;;;;;;;58.00;46.25;25.60;97.00;;;;;;5021004;28;8782;-71
2022/01/08 12:42:21;;;;;;;;;67.75;52.25;25.50;97.70;;;;;;5019847;28;8797;-71
2022/01/08 12:45:20;;;;;;;;;66.25;51.50;25.50;98.50;;;;;;5021455;28;8882;-71
2022/01/08 12:47:55;;;;;;;;;69.50;51.75;25.40;98.90;;;;;;5009223;28;8758;-71
2022/01/08 12:50:30;;;;;;;;;61.25;48.00;25.40;98.50;;;;;;5021544;28;8789;-71
2022/01/08 12:53:06;;;;;;;;;67.25;48.75;25.30;98.50;;;;;;5021005;28;8856;-72
2022/01/08 12:55:55;;;;;;;;;60.00;48.00;25.20;99.00;;;;;;5021222;28;8844;-72
2022/01/08 12:58:24;;;;;;;;;63.50;49.00;25.00;99.50;;;;;;5038969;28;8787;-72
2022/01/08 13:01:00;;;;;;;;;60.75;45.50;25.00;99.30;;;;;;5061120;28;8750;-72
2022/01/08 13:03:33;;;;;;;;;58.50;45.75;24.80;99.00;;;;;;5060663;28;8781;-71
2022/01/08 13:06:15;;;;;;;;;59.00;47.25;24.90;99.20;;;;;;5060566;28;8777;-71